Time;durP1;ratioP1;P1;durP2;ratioP2;P2;SDS_P1;SDS_P2;PMS_P1;PMS_P2;Temp;Humidity;BMP_temperature;BMP_pressure;BME280_temperature;BME280_humidity;BME280_pressure;Samples;Min_cycle;Max_cycle;Signal;HPM_P1;HPM_P2
2023/01/16 00:00:51;;;;;;;2.73;2.40;;;;;;;3.59;100.00;99465.69;4862728;29;20056;-89
2023/01/16 00:03:17;;;;;;;3.17;2.70;;;;;;;3.54;100.00;99458.25;4844070;29;20041;-90
2023/01/16 00:05:42;;;;;;;3.77;2.50;;;;;;;3.53;100.00;99454.72;4847214;29;20040;-89
2023/01/16 00:08:08;;;;;;;4.17;2.70;;;;;;;3.54;100.00;99448.34;4840791;29;20502;-89
2023/01/16 00:10:33;;;;;;;3.73;2.30;;;;;;;3.46;100.00;99437.81;4799188;29;20045;-88
2023/01/16 00:12:58;;;;;;;3.70;2.10;;;;;;;3.54;100.00;99436.84;4833453;29;20045;-89
2023/01/16 00:15:24;;;;;;;5.00;2.47;;;;;;;3.50;100.00;99441.75;4825230;29;20508;-89
2023/01/16 00:17:49;;;;;;;3.47;1.97;;;;;;;3.48;100.00;99449.16;4817075;29;20060;-90
2023/01/16 00:20:15;;;;;;;5.67;2.40;;;;;;;3.51;100.00;99447.94;4850628;29;20033;-90
2023/01/16 00:22:41;;;;;;;3.37;1.97;;;;;;;3.48;100.00;99425.06;4852258;29;20047;-89
2023/01/16 00:25:07;;;;;;;3.43;1.80;;;;;;;3.50;100.00;99440.94;4847106;29;20032;-89
2023/01/16 00:27:32;;;;;;;3.03;1.90;;;;;;;3.48;100.00;99421.53;4818956;29;20033;-90
2023/01/16 00:29:58;;;;;;;3.63;1.70;;;;;;;3.47;100.00;99436.81;4859866;29;20060;-88
2023/01/16 00:32:23;;;;;;;7.17;2.00;;;;;;;3.47;100.00;99439.47;4817361;29;20065;-90
2023/01/16 00:34:48;;;;;;;6.63;2.40;;;;;;;3.39;100.00;99423.59;4817451;29;20485;-90
2023/01/16 00:37:14;;;;;;;6.53;2.20;;;;;;;3.44;100.00;99433.69;4832835;29;20064;-89
2023/01/16 00:39:39;;;;;;;4.33;2.23;;;;;;;3.40;100.00;99417.22;4834330;29;20044;-89
2023/01/16 00:42:06;;;;;;;5.30;2.10;;;;;;;3.36;100.00;99421.31;4833357;29;20052;-90
2023/01/16 00:44:32;;;;;;;3.57;1.90;;;;;;;3.34;100.00;99418.00;4832974;29;20449;-90
2023/01/16 00:46:58;;;;;;;6.27;2.40;;;;;;;3.27;100.00;99412.63;4862555;29;20041;-83
2023/01/16 00:49:23;;;;;;;5.07;2.57;;;;;;;3.35;100.00;99414.31;4826944;29;20059;-83
2023/01/16 00:51:49;;;;;;;7.10;2.70;;;;;;;3.23;100.00;99408.69;4824007;29;20888;-83
2023/01/16 00:54:14;;;;;;;9.07;2.63;;;;;;;3.27;100.00;99403.78;4827699;29;20045;-83
2023/01/16 00:56:40;;;;;;;6.50;2.40;;;;;;;3.24;100.00;99401.47;4807341;29;21078;-83
2023/01/16 00:59:05;;;;;;;7.83;3.17;;;;;;;3.21;100.00;99400.03;4841941;29;20037;-83
2023/01/16 01:01:31;;;;;;;6.53;2.70;;;;;;;3.22;100.00;99393.66;4820310;29;20041;-83
2023/01/16 01:03:58;;;;;;;10.13;3.07;;;;;;;3.10;100.00;99384.53;4858878;29;20594;-83
2023/01/16 01:06:23;;;;;;;6.77;2.70;;;;;;;3.12;100.00;99380.63;4844130;29;20067;-83
2023/01/16 01:08:49;;;;;;;8.77;2.60;;;;;;;3.11;100.00;99370.94;4844286;29;20040;-83
2023/01/16 01:11:15;;;;;;;8.57;3.20;;;;;;;3.08;100.00;99371.34;4844462;29;20040;-83
2023/01/16 01:13:41;;;;;;;7.77;2.90;;;;;;;3.04;100.00;99360.22;4834959;29;20420;-83
2023/01/16 01:16:07;;;;;;;7.80;2.83;;;;;;;3.02;100.00;99366.81;4845216;29;20037;-83
2023/01/16 01:18:32;;;;;;;9.00;3.07;;;;;;;3.03;100.00;99355.06;4825065;29;20053;-83
2023/01/16 01:20:58;;;;;;;11.40;4.70;;;;;;;3.05;100.00;99353.03;4860890;29;20121;-83
2023/01/16 01:23:23;;;;;;;13.40;5.20;;;;;;;3.00;100.00;99358.97;4862900;29;20025;-83
2023/01/16 01:25:49;;;;;;;15.40;4.83;;;;;;;2.98;100.00;99354.84;4845082;29;20104;-83
2023/01/16 01:28:15;;;;;;;17.40;6.27;;;;;;;2.97;100.00;99337.97;4841474;29;20032;-83
2023/01/16 01:30:40;;;;;;;14.27;5.40;;;;;;;2.93;100.00;99346.59;4846364;29;20080;-83
2023/01/16 01:33:06;;;;;;;13.03;6.00;;;;;;;2.90;100.00;99334.44;4865058;29;20037;-89
2023/01/16 01:35:32;;;;;;;13.97;5.43;;;;;;;2.90;100.00;99341.63;4838780;29;20406;-89
2023/01/16 01:37:57;;;;;;;14.13;6.33;;;;;;;2.84;100.00;99327.19;4846711;29;20033;-88
2023/01/16 01:40:23;;;;;;;10.77;4.10;;;;;;;2.84;100.00;99306.63;4862026;29;20045;-89
2023/01/16 01:42:52;;;;;;;15.00;4.60;;;;;;;2.83;100.00;99307.66;4872233;29;20057;-89
2023/01/16 01:45:37;;;;;;;10.73;3.63;;;;;;;2.82;100.00;99308.69;4851348;29;20037;-89
2023/01/16 01:48:21;;;;;;;10.33;3.27;;;;;;;2.79;100.00;99300.22;4865699;29;20485;-89
2023/01/16 01:51:12;;;;;;;7.57;2.30;;;;;;;2.81;100.00;99285.63;4863497;29;20033;-88
2023/01/16 01:53:45;;;;;;;7.40;2.50;;;;;;;2.83;100.00;99283.59;4860528;29;20116;-89
2023/01/16 01:56:19;;;;;;;8.23;2.73;;;;;;;2.85;100.00;99276.16;4850207;29;20032;-90
2023/01/16 01:58:49;;;;;;;8.05;2.47;;;;;;;2.86;100.00;99260.97;4863183;29;21039;-89
2023/01/16 02:01:14;;;;;;;9.93;2.70;;;;;;;2.90;100.00;99259.53;4848569;29;20033;-89
2023/01/16 02:03:46;;;;;;;8.93;2.40;;;;;;;2.87;100.00;99258.06;4864191;29;20639;-90
2023/01/16 02:06:20;;;;;;;10.33;2.50;;;;;;;2.84;100.00;99252.28;4861019;29;20037;-89
2023/01/16 02:08:47;;;;;;;7.10;2.33;;;;;;;2.89;100.00;99247.16;4847455;29;20116;-89
2023/01/16 02:11:25;;;;;;;8.43;2.67;;;;;;;2.87;100.00;99250.06;4833998;29;21869;-89
2023/01/16 02:13:57;;;;;;;11.20;2.77;;;;;;;2.84;100.00;99236.25;4864479;29;20037;-90
2023/01/16 02:19:35;;;;;;;7.70;2.30;;;;;;;2.85;100.00;99244.06;4857788;29;20075;-89
2023/01/16 02:22:28;;;;;;;9.63;3.57;;;;;;;2.86;100.00;99227.00;4837213;29;20140;-89
2023/01/16 02:25:22;;;;;;;10.00;3.37;;;;;;;2.83;100.00;99218.56;4861557;29;20793;-89
2023/01/16 02:27:50;;;;;;;9.20;3.13;;;;;;;2.85;100.00;99209.28;4858118;29;20112;-89
2023/01/16 02:30:37;;;;;;;10.03;2.80;;;;;;;2.85;100.00;99205.81;4844927;29;20458;-88
2023/01/16 02:33:19;;;;;;;9.63;2.83;;;;;;;2.87;100.00;99203.75;4844999;29;20041;-89
2023/01/16 02:35:49;;;;;;;11.67;2.63;;;;;;;2.86;100.00;99197.56;4863719;29;20434;-90
2023/01/16 02:38:34;;;;;;;10.70;2.80;;;;;;;2.93;100.00;99186.06;4848365;29;20526;-90
2023/01/16 02:41:08;;;;;;;8.68;3.05;;;;;;;2.95;100.00;99173.31;4859300;29;20046;-89
2023/01/16 02:43:47;;;;;;;5.53;2.60;;;;;;;2.94;100.00;99164.47;4861220;29;20112;-89
2023/01/16 02:46:36;;;;;;;7.93;2.53;;;;;;;2.95;100.00;99160.78;4863566;29;20061;-89
2023/01/16 02:49:28;;;;;;;9.83;2.53;;;;;;;2.93;100.00;99140.59;4813828;29;20120;-83
2023/01/16 02:52:04;;;;;;;8.33;2.43;;;;;;;2.92;100.00;99137.06;4855402;29;20502;-83
2023/01/16 02:54:58;;;;;;;10.70;2.83;;;;;;;2.97;100.00;99129.25;4846959;29;20041;-89
2023/01/16 02:57:29;;;;;;;7.13;2.40;;;;;;;2.92;100.00;99113.00;4861338;29;20041;-89
2023/01/16 02:59:56;;;;;;;9.23;2.70;;;;;;;2.94;100.00;99105.59;4863533;29;20145;-89
2023/01/16 03:02:21;;;;;;;10.97;3.20;;;;;;;2.91;100.00;99099.84;4861546;29;20045;-89
2023/01/16 03:04:49;;;;;;;9.23;2.90;;;;;;;2.81;100.00;99086.88;4826651;29;20036;-89
2023/01/16 03:07:52;;;;;;;8.83;2.73;;;;;;;2.76;100.00;99090.16;4862890;29;20033;-89
2023/01/16 03:10:46;;;;;;;7.07;2.70;;;;;;;2.69;100.00;99083.97;4847996;29;20573;-83
2023/01/16 03:13:39;;;;;;;7.22;2.45;;;;;;;2.61;100.00;99076.97;4853867;29;20085;-83
2023/01/16 03:16:04;;;;;;;6.57;2.80;;;;;;;2.53;100.00;99064.63;4852786;29;20033;-84
2023/01/16 03:19:03;;;;;;;8.90;2.60;;;;;;;2.49;100.00;99065.25;4857896;29;20072;-83
2023/01/16 03:22:04;;;;;;;9.63;2.20;;;;;;;2.45;100.00;99055.94;4826871;29;20040;-83
2023/01/16 03:24:45;;;;;;;8.57;2.63;;;;;;;2.39;100.00;99044.22;4859686;29;20049;-83
2023/01/16 03:27:50;;;;;;;6.27;2.20;;;;;;;2.39;100.00;99040.72;4845562;29;20041;-83
2023/01/16 03:30:45;;;;;;;7.87;2.30;;;;;;;2.34;100.00;99030.66;4863449;29;20398;-83
2023/01/16 03:33:22;;;;;;;6.15;2.10;;;;;;;2.28;100.00;99029.59;4858529;29;20025;-89
2023/01/16 03:35:59;;;;;;;7.70;2.23;;;;;;;2.26;100.00;99020.13;4862484;29;20089;-89
2023/01/16 03:38:28;;;;;;;10.40;2.60;;;;;;;2.22;100.00;99018.91;4860985;29;20025;-89
2023/01/16 03:40:56;;;;;;;7.30;2.23;;;;;;;2.17;100.00;99009.63;4858986;29;20033;-89
2023/01/16 03:43:30;;;;;;;6.83;2.30;;;;;;;2.16;100.00;98999.16;4847692;29;20077;-89
2023/01/16 03:46:01;;;;;;;9.23;2.83;;;;;;;2.15;100.00;98986.84;4849019;29;20162;-89
2023/01/16 03:48:53;;;;;;;8.03;2.43;;;;;;;2.15;100.00;98976.97;4858821;29;20032;-89
2023/01/16 03:51:26;;;;;;;8.50;2.53;;;;;;;2.16;100.00;98970.59;4849063;29;20030;-89
2023/01/16 03:54:01;;;;;;;7.30;2.50;;;;;;;2.17;100.00;98958.06;4840136;29;20427;-89
2023/01/16 03:56:43;;;;;;;7.47;2.60;;;;;;;2.19;100.00;98953.34;4846129;29;20037;-90
2023/01/16 03:59:09;;;;;;;9.73;2.70;;;;;;;2.18;100.00;98952.50;4842763;29;20064;-89
2023/01/16 04:01:40;;;;;;;11.57;2.63;;;;;;;2.19;100.00;98946.16;4853183;29;20056;-89
2023/01/16 04:04:43;;;;;;;11.07;2.90;;;;;;;2.22;100.00;98934.22;4864273;29;20087;-89
2023/01/16 04:07:14;;;;;;;7.43;2.40;;;;;;;2.19;100.00;98922.09;4850093;29;20125;-89
2023/01/16 04:09:49;;;;;;;8.60;3.00;;;;;;;2.19;100.00;98918.63;4843290;29;20081;-89
2023/01/16 04:12:20;;;;;;;6.33;2.60;;;;;;;2.18;100.00;98909.75;4856049;29;20025;-89
2023/01/16 04:14:50;;;;;;;10.70;2.47;;;;;;;2.19;100.00;98902.59;4858409;29;20026;-89
2023/01/16 04:17:16;;;;;;;8.90;2.93;;;;;;;2.17;100.00;98894.75;4859568;29;20029;-89
2023/01/16 04:19:43;;;;;;;11.53;3.03;;;;;;;2.17;100.00;98884.06;4823106;29;20446;-89
2023/01/16 04:22:22;;;;;;;7.87;2.80;;;;;;;2.19;100.00;98887.34;4863765;29;21132;-89
2023/01/16 04:24:49;;;;;;;8.97;2.90;;;;;;;2.19;100.00;98871.31;4862052;29;20033;-89
2023/01/16 04:27:15;;;;;;;8.27;3.30;;;;;;;2.24;100.00;98867.22;4854065;29;20395;-89
2023/01/16 04:29:40;;;;;;;10.20;3.03;;;;;;;2.23;100.00;98854.88;4842033;29;20055;-89
2023/01/16 04:32:06;;;;;;;9.00;3.37;;;;;;;2.24;100.00;98843.16;4845066;29;20033;-89
2023/01/16 04:34:31;;;;;;;9.17;3.00;;;;;;;2.25;100.00;98836.81;4837671;29;20039;-89
2023/01/16 04:36:57;;;;;;;12.27;3.07;;;;;;;2.26;100.00;98825.91;4815639;29;20038;-90
2023/01/16 04:39:22;;;;;;;11.23;3.03;;;;;;;2.31;100.00;98820.75;4826078;29;20034;-83
2023/01/16 04:41:50;;;;;;;9.93;3.03;;;;;;;2.31;100.00;98806.56;4831628;29;20058;-83
2023/01/16 04:44:16;;;;;;;8.20;3.00;;;;;;;2.33;100.00;98797.31;4830337;29;20049;-83
2023/01/16 04:46:42;;;;;;;6.97;2.97;;;;;;;2.38;100.00;98780.66;4844893;29;20034;-83
2023/01/16 04:49:07;;;;;;;8.07;3.23;;;;;;;2.42;100.00;98779.22;4858179;29;20090;-83
2023/01/16 04:51:34;;;;;;;8.70;3.00;;;;;;;2.46;100.00;98767.06;4831408;29;20467;-83
2023/01/16 04:53:59;;;;;;;11.90;2.70;;;;;;;2.53;100.00;98759.03;4857738;29;20029;-83
2023/01/16 04:56:25;;;;;;;6.20;2.57;;;;;;;2.52;100.00;98750.16;4860146;29;20501;-83
2023/01/16 04:58:50;;;;;;;8.83;2.67;;;;;;;2.58;100.00;98737.81;4862516;29;20055;-83
2023/01/16 05:01:17;;;;;;;7.93;2.60;;;;;;;2.63;100.00;98734.50;4840171;29;20036;-83
2023/01/16 05:03:43;;;;;;;11.33;3.03;;;;;;;2.69;100.00;98723.78;4857121;29;20030;-83
2023/01/16 05:06:08;;;;;;;10.30;2.77;;;;;;;2.75;100.00;98723.94;4834388;29;20071;-83
2023/01/16 05:08:33;;;;;;;7.77;2.67;;;;;;;2.82;100.00;98709.53;4832158;29;20124;-83
2023/01/16 05:11:01;;;;;;;9.83;2.57;;;;;;;2.87;100.00;98707.03;4828959;29;21663;-83
2023/01/16 05:13:27;;;;;;;6.83;2.80;;;;;;;2.90;100.00;98694.25;4825659;29;20058;-83
2023/01/16 05:15:52;;;;;;;8.20;2.60;;;;;;;2.91;100.00;98695.91;4829564;29;20033;-83
2023/01/16 05:18:18;;;;;;;6.53;2.70;;;;;;;2.94;100.00;98690.09;4829902;29;20072;-83
2023/01/16 05:20:43;;;;;;;6.80;2.63;;;;;;;2.94;100.00;98671.38;4859645;29;20116;-83
2023/01/16 05:23:11;;;;;;;7.83;2.50;;;;;;;3.00;100.00;98657.16;4860877;29;20084;-83
2023/01/16 05:25:38;;;;;;;7.63;2.37;;;;;;;3.03;100.00;98654.88;4858588;29;20044;-83
2023/01/16 05:28:04;;;;;;;9.73;2.53;;;;;;;3.06;100.00;98648.28;4842034;29;20033;-83
2023/01/16 05:30:29;;;;;;;5.87;2.50;;;;;;;3.07;100.00;98638.38;4824914;29;20996;-83
2023/01/16 05:32:55;;;;;;;7.07;2.40;;;;;;;3.13;100.00;98629.47;4858590;29;20414;-83
2023/01/16 05:35:21;;;;;;;6.97;2.17;;;;;;;3.16;100.00;98626.38;4844077;29;20506;-83
2023/01/16 05:37:46;;;;;;;6.00;2.10;;;;;;;3.20;100.00;98615.00;4845127;29;20026;-83
2023/01/16 05:40:13;;;;;;;6.97;2.47;;;;;;;3.19;100.00;98608.00;4839996;29;20041;-83
2023/01/16 05:42:42;;;;;;;7.87;2.33;;;;;;;3.21;100.00;98597.94;4858759;29;20894;-82
2023/01/16 05:45:08;;;;;;;6.63;2.10;;;;;;;3.20;100.00;98588.25;4852524;29;20058;-89
2023/01/16 05:47:33;;;;;;;8.03;2.30;;;;;;;3.27;100.00;98576.69;4844839;29;20033;-89
2023/01/16 05:49:59;;;;;;;8.90;2.37;;;;;;;3.26;100.00;98569.69;4803967;29;20505;-89
2023/01/16 05:52:26;;;;;;;6.77;2.07;;;;;;;3.23;100.00;98562.91;4850788;29;20033;-89
2023/01/16 05:54:52;;;;;;;6.60;2.40;;;;;;;3.25;100.00;98551.97;4836581;29;20182;-89
2023/01/16 05:57:18;;;;;;;6.03;2.20;;;;;;;3.29;100.00;98526.41;4848997;29;20216;-89
2023/01/16 05:59:45;;;;;;;6.37;2.37;;;;;;;3.30;100.00;98528.88;4868944;29;20120;-89
2023/01/16 06:02:11;;;;;;;7.80;2.20;;;;;;;3.32;100.00;98526.00;4850740;29;20190;-89
2023/01/16 06:04:37;;;;;;;6.80;2.20;;;;;;;3.33;100.00;98517.72;4869170;29;20419;-90
2023/01/16 06:07:03;;;;;;;6.93;2.13;;;;;;;3.32;100.00;98515.28;4823372;29;20037;-89
2023/01/16 06:09:28;;;;;;;6.40;2.73;;;;;;;3.31;100.00;98503.75;4851102;29;21156;-89
2023/01/16 06:11:54;;;;;;;5.90;2.10;;;;;;;3.36;100.00;98495.06;4862236;29;20066;-89
2023/01/16 06:14:19;;;;;;;5.37;1.93;;;;;;;3.32;100.00;98496.53;4821801;29;20109;-89
2023/01/16 06:16:44;;;;;;;10.03;2.20;;;;;;;3.36;100.00;98495.06;4831060;29;20048;-83
2023/01/16 06:19:10;;;;;;;6.83;2.30;;;;;;;3.36;100.00;98497.75;4828063;29;20069;-83
2023/01/16 06:21:35;;;;;;;6.23;2.20;;;;;;;3.34;100.00;98492.59;4803654;29;20045;-82
2023/01/16 06:24:01;;;;;;;5.33;1.80;;;;;;;3.35;100.00;98486.19;4841242;29;20105;-82
2023/01/16 06:26:26;;;;;;;6.60;2.03;;;;;;;3.34;100.00;98486.44;4843114;29;20045;-83
2023/01/16 06:28:52;;;;;;;7.43;2.07;;;;;;;3.32;100.00;98483.16;4839051;29;20052;-83
2023/01/16 06:31:17;;;;;;;4.50;1.90;;;;;;;3.29;100.00;98467.53;4857860;29;20533;-82
2023/01/16 06:33:42;;;;;;;3.57;1.70;;;;;;;3.33;100.00;98468.72;4841000;29;20046;-83
2023/01/16 06:36:08;;;;;;;4.93;2.10;;;;;;;3.25;100.00;98466.34;4827400;29;20069;-83
2023/01/16 06:38:33;;;;;;;6.60;2.07;;;;;;;3.24;100.00;98454.81;4861683;29;20037;-90
2023/01/16 06:40:58;;;;;;;4.37;2.33;;;;;;;3.26;100.00;98451.94;4819841;29;20058;-90
2023/01/16 06:43:25;;;;;;;4.20;1.77;;;;;;;3.21;100.00;98449.94;4850540;29;20041;-82
2023/01/16 06:45:51;;;;;;;5.93;2.10;;;;;;;3.20;100.00;98443.75;4839581;29;20129;-82
2023/01/16 06:48:16;;;;;;;3.43;1.87;;;;;;;3.16;100.00;98437.19;4840505;29;20041;-82
2023/01/16 06:50:42;;;;;;;5.80;1.70;;;;;;;3.16;100.00;98426.50;4842830;29;20124;-82
2023/01/16 06:53:07;;;;;;;7.50;2.00;;;;;;;3.16;100.00;98415.78;4839398;29;20040;-82
2023/01/16 06:55:32;;;;;;;5.73;1.97;;;;;;;3.17;100.00;98395.22;4839941;29;20387;-82
2023/01/16 06:57:58;;;;;;;7.03;2.03;;;;;;;3.17;100.00;98392.53;4819460;29;20068;-82
2023/01/16 07:00:23;;;;;;;6.83;1.90;;;;;;;3.16;100.00;98372.97;4856140;29;20037;-82
2023/01/16 07:02:56;;;;;;;6.20;1.77;;;;;;;3.12;100.00;98365.63;4839986;29;20089;-82
2023/01/16 07:05:23;;;;;;;5.37;1.90;;;;;;;3.11;100.00;98348.75;4856422;29;20528;-82
2023/01/16 07:07:49;;;;;;;3.87;1.73;;;;;;;3.11;100.00;98334.56;4840611;29;20088;-82
2023/01/16 07:10:16;;;;;;;6.07;2.00;;;;;;;3.12;100.00;98328.97;4839877;29;20375;-83
2023/01/16 07:12:41;;;;;;;6.57;2.27;;;;;;;3.12;100.00;98315.59;4841959;29;20033;-82
2023/01/16 07:23:25;;;;;;;6.05;2.20;;;;;;;3.17;100.00;98267.59;4856508;29;20111;-82
2023/01/16 07:25:52;;;;;;;4.27;2.00;;;;;;;3.21;100.00;98260.75;4842798;29;20108;-83
2023/01/16 07:28:18;;;;;;;4.57;2.00;;;;;;;3.18;100.00;98250.50;4843259;29;20474;-83
2023/01/16 07:30:44;;;;;;;4.63;2.00;;;;;;;3.17;100.00;98254.22;4825732;29;20090;-83
2023/01/16 07:33:10;;;;;;;6.13;2.23;;;;;;;3.19;100.00;98240.59;4840423;29;20117;-83
2023/01/16 07:35:36;;;;;;;4.77;2.30;;;;;;;3.18;100.00;98226.41;4846168;29;20037;-90
2023/01/16 07:38:02;;;;;;;3.80;1.90;;;;;;;3.19;100.00;98233.38;4818309;29;20022;-91
2023/01/16 07:40:27;;;;;;;5.13;1.90;;;;;;;3.23;100.00;98233.75;4828041;29;20033;-83
2023/01/16 07:42:53;;;;;;;5.23;2.00;;;;;;;3.21;100.00;98217.91;4824359;29;20099;-90
2023/01/16 07:45:18;;;;;;;6.33;2.20;;;;;;;3.22;100.00;98218.72;4828947;29;20025;-91
2023/01/16 07:47:43;;;;;;;6.87;2.00;;;;;;;3.24;100.00;98215.81;4827365;29;20030;-91
2023/01/16 07:50:10;;;;;;;4.90;2.10;;;;;;;3.26;100.00;98206.53;4871581;29;20033;-90
2023/01/16 07:52:35;;;;;;;4.40;2.00;;;;;;;3.32;100.00;98199.47;4872375;29;20032;-91
2023/01/16 07:55:00;;;;;;;6.53;2.20;;;;;;;3.30;100.00;98201.53;4866445;29;20029;-91
2023/01/16 07:57:26;;;;;;;5.60;2.00;;;;;;;3.29;100.00;98192.72;4853862;29;20025;-91
2023/01/16 07:59:52;;;;;;;4.97;1.97;;;;;;;3.29;100.00;98183.84;4865544;29;20044;-90
2023/01/16 08:02:17;;;;;;;5.80;2.10;;;;;;;3.25;100.00;98175.47;4829950;29;20030;-92
2023/01/16 08:04:43;;;;;;;4.57;2.00;;;;;;;3.27;100.00;98161.88;4843526;29;20124;-83
2023/01/16 08:07:08;;;;;;;4.23;2.10;;;;;;;3.26;100.00;98158.34;4819986;29;20073;-83
2023/01/16 08:09:34;;;;;;;5.67;2.10;;;;;;;3.27;100.00;98153.84;4834493;29;20117;-82
2023/01/16 08:11:59;;;;;;;7.33;2.23;;;;;;;3.30;100.00;98150.69;4818289;29;20097;-83
2023/01/16 08:14:24;;;;;;;6.97;2.70;;;;;;;3.29;100.00;98141.03;4833679;29;20089;-83
2023/01/16 08:16:50;;;;;;;5.30;2.53;;;;;;;3.32;100.00;98132.56;4835500;29;20033;-83
2023/01/16 08:19:15;;;;;;;5.33;2.20;;;;;;;3.29;100.00;98131.16;4824285;29;20128;-82
2023/01/16 08:21:40;;;;;;;6.53;2.47;;;;;;;3.37;100.00;98119.28;4840250;29;20045;-83
2023/01/16 08:24:06;;;;;;;5.60;2.43;;;;;;;3.38;100.00;98112.88;4844018;29;20059;-83
2023/01/16 08:26:32;;;;;;;7.40;2.40;;;;;;;3.35;100.00;98095.41;4839954;29;20399;-83
2023/01/16 08:28:58;;;;;;;6.50;2.23;;;;;;;3.36;100.00;98093.56;4841529;29;20025;-83
2023/01/16 08:31:23;;;;;;;6.37;2.73;;;;;;;3.38;100.00;98088.78;4858977;29;20029;-92
2023/01/16 08:33:49;;;;;;;4.53;1.93;;;;;;;3.38;100.00;98088.78;4845683;29;20447;-91
2023/01/16 08:36:20;;;;;;;6.67;2.40;;;;;;;3.35;100.00;98076.69;4850590;29;20035;-91
2023/01/16 08:38:46;;;;;;;4.30;2.13;;;;;;;3.35;100.00;98071.31;4832500;29;20089;-92
2023/01/16 08:52:10;;;;;;;5.17;2.30;;;;;;;3.41;100.00;98042.81;4856174;29;20340;-83
2023/01/16 08:54:35;;;;;;;5.63;2.50;;;;;;;3.42;100.00;98044.44;4832519;29;20522;-84
2023/01/16 08:57:01;;;;;;;5.73;2.37;;;;;;;3.44;100.00;98045.03;4830040;29;20033;-83
2023/01/16 08:59:32;;;;;;;7.93;2.30;;;;;;;3.47;100.00;98044.56;4857729;29;20474;-83
2023/01/16 09:01:59;;;;;;;4.53;2.10;;;;;;;3.44;100.00;98037.00;4840841;29;20048;-83
2023/01/16 09:04:24;;;;;;;5.83;2.30;;;;;;;3.48;100.00;98032.81;4824707;29;20093;-84
2023/01/16 09:06:50;;;;;;;3.13;1.97;;;;;;;3.52;100.00;98023.25;4826301;29;20927;-83
2023/01/16 09:09:15;;;;;;;4.40;2.10;;;;;;;3.52;100.00;98025.94;4844366;29;20052;-83
2023/01/16 09:14:24;;;;;;;5.77;2.03;;;;;;;3.54;100.00;98020.34;4858129;29;20105;-83
2023/01/16 09:16:50;;;;;;;3.17;1.70;;;;;;;3.58;100.00;98015.31;4859255;29;20049;-83
2023/01/16 09:19:15;;;;;;;7.20;2.40;;;;;;;3.57;100.00;98024.41;4810671;29;20132;-83
2023/01/16 09:21:40;;;;;;;5.17;2.10;;;;;;;3.55;100.00;98022.78;4843522;29;20482;-83
2023/01/16 09:24:07;;;;;;;6.73;2.70;;;;;;;3.54;100.00;98013.13;4830011;29;20037;-84
2023/01/16 09:26:32;;;;;;;4.97;2.13;;;;;;;3.53;100.00;98018.72;4847169;29;20127;-83
2023/01/16 09:28:58;;;;;;;6.50;2.60;;;;;;;3.54;100.00;98013.13;4844158;29;20108;-84
2023/01/16 09:31:23;;;;;;;4.33;2.50;;;;;;;3.48;100.00;98027.47;4834870;29;20406;-92
2023/01/16 09:33:49;;;;;;;2.80;2.10;;;;;;;3.45;100.00;98011.84;4835544;29;20034;-91
2023/01/16 09:36:15;;;;;;;3.40;1.90;;;;;;;3.45;100.00;98009.16;4835049;29;20537;-90
2023/01/16 09:38:40;;;;;;;3.40;2.00;;;;;;;3.44;100.00;98002.22;4835646;29;20049;-91
2023/01/16 09:41:13;;;;;;;2.47;1.50;;;;;;;3.42;100.00;97998.13;4851082;29;20884;-90
2023/01/16 09:43:41;;;;;;;2.20;1.70;;;;;;;3.44;100.00;98002.22;4849471;29;20033;-91
2023/01/16 09:46:19;;;;;;;1.43;1.30;;;;;;;3.47;100.00;97999.06;4837876;29;20034;-90
2023/01/16 09:49:01;;;;;;;3.37;1.57;;;;;;;3.46;100.00;97996.63;4862023;29;20112;-91
2023/01/16 09:51:41;;;;;;;2.50;1.30;;;;;;;3.47;100.00;97993.69;4836656;29;20040;-90
2023/01/16 09:59:54;;;;;;;2.50;1.67;;;;;;;3.50;100.00;97987.06;4864861;29;20057;-91
2023/01/16 10:02:30;;;;;;;2.10;1.50;;;;;;;3.50;100.00;97971.81;4845748;29;20064;-91
2023/01/16 10:04:56;;;;;;;1.83;1.63;;;;;;;3.50;100.00;97969.13;4847786;29;20460;-90
2023/01/16 10:07:31;;;;;;;2.90;1.50;;;;;;;3.54;100.00;97972.16;4852958;29;20053;-91
2023/01/16 10:10:34;;;;;;;2.47;1.70;;;;;;;3.59;100.00;97974.13;4851775;29;20059;-91
2023/01/16 10:13:05;;;;;;;1.70;1.50;;;;;;;3.63;100.00;97969.91;4860253;29;20376;-83
2023/01/16 10:15:40;;;;;;;1.83;1.57;;;;;;;3.64;100.00;97958.16;4841421;29;20033;-83
2023/01/16 10:18:17;;;;;;;;;;;;;;;3.68;100.00;97949.41;4860662;29;20038;-90
2023/01/16 10:20:56;;;;;;;1.50;1.40;;;;;;;3.70;100.00;97941.16;4846678;29;19920;-90
2023/01/16 10:23:47;;;;;;;1.57;1.23;;;;;;;3.74;100.00;97938.78;4844307;29;20037;-90
2023/01/16 10:26:20;;;;;;;1.90;1.20;;;;;;;3.79;100.00;97937.00;4858399;29;20025;-90
2023/01/16 10:29:28;;;;;;;1.10;1.00;;;;;;;3.88;100.00;97924.88;4843342;29;20026;-90
2023/01/16 10:32:24;;;;;;;1.43;1.20;;;;;;;4.00;100.00;97910.63;4844468;29;20546;-91
2023/01/16 10:35:05;;;;;;;1.13;1.00;;;;;;;4.17;100.00;97916.78;4863233;29;20021;-90
2023/01/16 10:37:32;;;;;;;1.13;1.03;;;;;;;4.27;100.00;97909.97;4849925;29;20041;-90
2023/01/16 10:40:14;;;;;;;1.50;1.00;;;;;;;4.32;100.00;97899.34;4842196;29;20033;-90
2023/01/16 10:51:03;;;;;;;1.48;1.13;;;;;;;4.45;100.00;97888.31;4849074;29;20080;-90
2023/01/16 10:53:30;;;;;;;1.83;0.97;;;;;;;4.48;100.00;97885.13;4855365;29;20033;-91
2023/01/16 10:55:56;;;;;;;1.83;1.07;;;;;;;4.51;100.00;97876.59;4846115;29;20170;-91
2023/01/16 10:58:35;;;;;;;0.90;0.90;;;;;;;4.55;100.00;97863.50;4847125;29;20648;-83
2023/01/16 11:01:05;;;;;;;1.37;1.00;;;;;;;4.53;100.00;97861.09;4844731;29;20532;-84
2023/01/16 11:03:36;;;;;;;1.53;0.90;;;;;;;4.54;100.00;97851.97;4859510;29;20037;-84
2023/01/16 11:06:28;;;;;;;2.33;1.10;;;;;;;4.60;100.00;97852.03;4861252;29;20025;-84
2023/01/16 11:09:06;;;;;;;1.00;1.00;;;;;;;4.59;100.00;97847.75;4840017;29;21031;-84
2023/01/16 11:20:08;;;;;;;1.77;1.20;;;;;;;4.61;100.00;97816.13;4860545;29;20560;-84
2023/01/16 11:22:38;;;;;;;1.43;1.33;;;;;;;4.61;100.00;97808.06;4864249;29;20382;-90
2023/01/16 11:25:04;;;;;;;1.90;1.10;;;;;;;4.63;100.00;97808.66;4848798;29;20025;-90
2023/01/16 11:27:36;;;;;;;0.80;0.80;;;;;;;4.67;100.00;97807.09;4863272;29;20045;-90
2023/01/16 11:30:06;;;;;;;2.67;1.13;;;;;;;4.68;100.00;97792.63;4847709;29;20049;-90
2023/01/16 11:32:37;;;;;;;1.00;0.90;;;;;;;4.71;100.00;97792.13;4861417;29;20029;-89
2023/01/16 11:35:12;;;;;;;1.30;1.00;;;;;;;4.74;100.00;97787.06;4867580;29;20055;-90
2023/01/16 11:37:38;;;;;;;1.85;0.98;;;;;;;4.76;100.00;97778.78;4841317;29;20025;-90
2023/01/16 11:40:05;;;;;;;1.47;1.33;;;;;;;4.78;100.00;97781.22;4868935;29;20045;-91
2023/01/16 11:48:25;;;;;;;1.50;1.40;;;;;;;4.86;100.00;97757.44;4858036;29;20052;-89
2023/01/16 11:50:54;;;;;;;2.83;1.40;;;;;;;4.86;100.00;97751.28;4845647;29;20038;-90
2023/01/16 11:53:19;;;;;;;1.17;1.07;;;;;;;4.91;100.00;97743.28;4845787;29;20033;-89
2023/01/16 11:56:16;;;;;;;1.50;1.30;;;;;;;4.93;100.00;97737.66;4866852;29;20389;-91
2023/01/16 11:59:14;;;;;;;1.63;1.47;;;;;;;4.99;100.00;97733.97;4832715;29;20041;-89
2023/01/16 12:04:33;;;;;;;1.17;1.13;;;;;;;5.01;100.00;97729.97;4863238;29;20077;-89
2023/01/16 12:07:13;;;;;;;2.80;1.40;;;;;;;5.04;100.00;97720.59;4840068;29;20037;-90
2023/01/16 12:10:03;;;;;;;3.40;1.60;;;;;;;5.08;100.00;97705.63;4843139;29;20036;-90
2023/01/16 12:15:35;;;;;;;2.95;1.63;;;;;;;5.13;100.00;97700.31;4865027;29;20047;-90
2023/01/16 12:18:03;;;;;;;2.83;1.47;;;;;;;5.14;100.00;97693.88;4848946;29;20100;-90
2023/01/16 12:20:43;;;;;;;1.60;1.40;;;;;;;5.10;100.00;97698.16;4850870;29;20041;-90
2023/01/16 12:23:50;;;;;;;1.30;1.20;;;;;;;5.09;100.00;97691.16;4836323;29;20026;-91
2023/01/16 12:26:24;;;;;;;2.23;1.40;;;;;;;5.05;100.00;97690.03;4865050;29;20036;-90
2023/01/16 12:29:09;;;;;;;2.70;1.30;;;;;;;5.07;100.00;97679.84;4858728;29;20081;-89
2023/01/16 12:31:44;;;;;;;3.00;1.40;;;;;;;5.06;100.00;97678.25;4852139;29;20298;-90
2023/01/16 12:34:28;;;;;;;1.60;1.50;;;;;;;5.07;100.00;97671.78;4864313;29;20041;-90
2023/01/16 12:37:02;;;;;;;1.20;1.08;;;;;;;5.07;100.00;97666.41;4853028;29;20040;-90
2023/01/16 12:39:28;;;;;;;;;;;;;;;5.15;100.00;97675.91;4861902;29;20033;-90
2023/01/16 12:45:31;;;;;;;2.10;1.33;;;;;;;5.11;100.00;97662.16;4860131;29;20092;-89
2023/01/16 12:48:45;;;;;;;3.10;1.20;;;;;;;5.11;100.00;97659.47;4860764;29;20120;-90
2023/01/16 12:51:32;;;;;;;1.53;1.33;;;;;;;5.06;100.00;97651.41;4853827;29;20132;-90
2023/01/16 12:54:16;;;;;;;3.67;1.30;;;;;;;5.08;100.00;97641.22;4863941;29;21869;-89